Time;durP1;ratioP1;P1;durP2;ratioP2;P2;SDS_P1;SDS_P2;PMS_P1;PMS_P2;Temp;Humidity;BMP_temperature;BMP_pressure;BME280_temperature;BME280_humidity;BME280_pressure;Samples;Min_cycle;Max_cycle;Signal;HPM_P1;HPM_P2
2022/05/26 00:01:50;;;;;;;6.30;3.57;;;15.40;94.60;;;;;;5054508;28;20225;-65
2022/05/26 00:04:17;;;;;;;5.57;3.47;;;15.40;91.00;;;;;;5055119;28;20235;-67
2022/05/26 00:06:43;;;;;;;4.50;3.27;;;15.40;91.70;;;;;;5055199;28;20201;-66
2022/05/26 00:09:08;;;;;;;4.93;3.57;;;15.30;91.60;;;;;;5054978;28;20169;-68
2022/05/26 00:11:37;;;;;;;5.17;3.47;;;15.40;92.90;;;;;;5055209;28;20177;-68
2022/05/26 00:14:07;;;;;;;5.83;3.70;;;15.30;92.40;;;;;;5054812;28;20204;-67
2022/05/26 00:16:38;;;;;;;6.40;3.73;;;15.30;93.80;;;;;;5054637;28;20256;-67
2022/05/26 00:19:04;;;;;;;6.33;3.73;;;15.30;94.60;;;;;;5053461;28;20611;-66
2022/05/26 00:21:30;;;;;;;5.73;4.00;;;15.20;96.30;;;;;;5054770;28;20191;-67
2022/05/26 00:23:57;;;;;;;6.80;4.50;;;15.30;96.90;;;;;;5053458;28;20179;-67
2022/05/26 00:26:24;;;;;;;5.10;3.90;;;15.30;95.00;;;;;;5054528;28;20180;-67
2022/05/26 00:28:49;;;;;;;6.40;4.60;;;15.30;94.40;;;;;;5054406;28;20605;-67
2022/05/26 00:31:15;;;;;;;7.43;4.67;;;15.30;94.70;;;;;;5054378;28;20205;-67
2022/05/26 00:33:41;;;;;;;10.03;5.80;;;15.20;96.20;;;;;;5054769;28;20307;-66
2022/05/26 00:36:10;;;;;;;6.00;4.60;;;15.30;96.10;;;;;;5054673;28;20520;-67
2022/05/26 00:38:36;;;;;;;12.33;5.17;;;15.20;96.80;;;;;;5054454;28;20264;-67
2022/05/26 00:41:04;;;;;;;9.57;5.03;;;15.20;97.60;;;;;;5054321;28;20350;-67
2022/05/26 00:43:30;;;;;;;7.67;5.70;;;15.30;97.40;;;;;;5054389;28;20173;-67
2022/05/26 00:46:09;;;;;;;6.53;5.90;;;15.30;97.20;;;;;;5054021;28;20323;-67
2022/05/26 00:48:47;;;;;;;12.57;6.00;;;15.30;95.80;;;;;;5054490;28;20180;-67
2022/05/26 00:51:15;;;;;;;9.80;5.67;;;15.40;92.60;;;;;;5054153;28;20169;-67
2022/05/26 00:53:52;;;;;;;11.73;6.10;;;15.40;92.30;;;;;;5054214;28;20165;-67
2022/05/26 00:56:24;;;;;;;10.77;5.93;;;15.40;93.40;;;;;;5054164;28;20176;-67
2022/05/26 00:58:59;;;;;;;10.33;5.70;;;15.40;93.20;;;;;;5054046;28;20176;-66
2022/05/26 01:01:26;;;;;;;13.27;5.90;;;15.30;96.00;;;;;;5053695;28;20201;-66
2022/05/26 01:04:03;;;;;;;9.93;5.70;;;15.30;95.60;;;;;;5053883;28;20196;-66
2022/05/26 01:06:38;;;;;;;13.60;5.97;;;15.30;94.40;;;;;;5053966;28;20184;-68
2022/05/26 01:09:05;;;;;;;10.77;5.50;;;15.40;94.60;;;;;;5053720;28;20184;-68
2022/05/26 01:11:34;;;;;;;13.47;6.47;;;15.30;94.70;;;;;;5053955;28;20177;-68
2022/05/26 01:14:15;;;;;;;14.87;6.43;;;15.30;96.60;;;;;;5053519;28;20180;-67
2022/05/26 01:16:49;;;;;;;13.33;6.30;;;15.20;97.30;;;;;;5053883;28;20288;-67
2022/05/26 01:19:30;;;;;;;14.50;6.30;;;15.20;98.30;;;;;;5053673;28;20200;-67
2022/05/26 01:22:00;;;;;;;16.43;6.90;;;15.20;99.90;;;;;;5053644;28;20184;-68
2022/05/26 01:25:04;;;;;;;15.93;6.90;;;15.20;99.80;;;;;;5053735;28;20176;-67
2022/05/26 01:27:37;;;;;;;14.53;6.30;;;15.20;97.60;;;;;;5053599;28;20222;-67
2022/05/26 01:30:30;;;;;;;10.50;6.13;;;15.20;98.70;;;;;;5053168;28;20264;-67
2022/05/26 01:33:16;;;;;;;14.17;6.40;;;15.20;99.50;;;;;;5053033;28;20214;-67
2022/05/26 01:36:09;;;;;;;9.03;6.30;;;15.20;99.90;;;;;;5053567;28;20165;-67
2022/05/26 01:38:54;;;;;;;14.40;6.80;;;15.20;98.50;;;;;;5053388;28;20169;-67
2022/05/26 01:41:57;;;;;;;15.47;5.93;;;15.20;97.80;;;;;;5053338;28;20207;-68
2022/05/26 01:44:41;;;;;;;13.07;6.03;;;15.20;97.00;;;;;;5053018;28;20184;-67
2022/05/26 01:47:34;;;;;;;14.93;6.57;;;15.30;96.70;;;;;;5053144;28;20169;-66
2022/05/26 01:50:25;;;;;;;13.73;6.27;;;15.40;94.90;;;;;;5053284;28;20563;-66
2022/05/26 01:53:15;;;;;;;10.60;5.63;;;15.40;94.80;;;;;;5053395;28;20166;-67
2022/05/26 01:55:48;;;;;;;17.60;6.20;;;15.40;95.20;;;;;;5053155;28;20169;-67
2022/05/26 01:58:39;;;;;;;12.73;6.17;;;15.30;95.70;;;;;;5052961;28;20238;-66
2022/05/26 02:01:10;;;;;;;18.00;6.70;;;15.30;95.80;;;;;;5053048;28;20221;-67
2022/05/26 02:03:39;;;;;;;11.97;6.20;;;15.30;96.80;;;;;;5052978;28;20216;-66
2022/05/26 02:06:12;;;;;;;15.50;6.30;;;15.40;97.00;;;;;;5051705;28;20263;-67
2022/05/26 02:08:50;;;;;;;13.90;6.27;;;15.40;95.90;;;;;;5052881;28;20576;-67
2022/05/26 02:11:18;;;;;;;13.47;6.33;;;15.40;94.40;;;;;;5053213;28;20212;-67
2022/05/26 02:14:42;;;;;;;13.17;6.50;;;15.40;93.90;;;;;;5052769;28;20200;-66
2022/05/26 02:17:18;;;;;;;12.73;6.93;;;15.30;94.50;;;;;;5030477;28;20248;-67
2022/05/26 02:19:50;;;;;;;15.73;6.47;;;15.20;97.00;;;;;;5031050;28;20669;-67
2022/05/26 02:22:30;;;;;;;12.90;6.97;;;15.10;99.10;;;;;;5031023;28;20182;-67
2022/05/26 02:24:58;;;;;;;17.07;7.10;;;15.20;98.40;;;;;;5030786;28;20208;-67
2022/05/26 02:27:26;;;;;;;18.83;7.20;;;15.10;99.10;;;;;;5030486;28;20269;-67
2022/05/26 02:29:52;;;;;;;18.43;6.37;;;15.20;99.70;;;;;;5030920;28;20250;-68
2022/05/26 02:32:58;;;;;;;15.73;6.63;;;15.20;97.30;;;;;;5030809;28;20185;-67
2022/05/26 02:35:28;;;;;;;17.77;6.43;;;15.30;96.30;;;;;;5030465;28;20272;-67
2022/05/26 02:38:01;;;;;;;14.13;6.90;;;15.20;97.00;;;;;;5030712;28;20181;-66
2022/05/26 02:40:27;;;;;;;17.90;6.53;;;15.20;98.10;;;;;;5031079;28;20217;-67
2022/05/26 02:43:00;;;;;;;20.43;6.53;;;15.20;96.10;;;;;;5030422;28;20174;-67
2022/05/26 02:45:29;;;;;;;15.93;6.37;;;15.10;98.90;;;;;;5033656;28;20233;-67
2022/05/26 02:48:11;;;;;;;15.20;6.67;;;15.10;98.70;;;;;;5048935;28;20181;-66
2022/05/26 02:50:52;;;;;;;16.07;6.47;;;15.20;99.00;;;;;;5056813;28;20192;-67
2022/05/26 02:53:27;;;;;;;18.70;6.43;;;15.20;98.30;;;;;;5056604;28;20264;-67
2022/05/26 02:56:34;;;;;;;16.37;5.93;;;15.20;96.80;;;;;;5055848;28;20632;-67
2022/05/26 02:59:26;;;;;;;22.57;6.73;;;15.20;96.40;;;;;;5055521;28;20203;-67
2022/05/26 03:01:56;;;;;;;16.63;5.93;;;15.20;96.00;;;;;;5056102;28;20220;-67
2022/05/26 03:04:30;;;;;;;20.97;6.30;;;15.20;96.60;;;;;;5056425;28;20219;-67
2022/05/26 03:07:02;;;;;;;14.43;6.00;;;15.30;95.70;;;;;;5056185;28;20226;-68
2022/05/26 03:09:33;;;;;;;18.43;6.13;;;15.20;95.60;;;;;;5056324;28;20259;-67
2022/05/26 03:11:59;;;;;;;15.63;5.77;;;15.20;95.10;;;;;;5055985;28;20184;-67
2022/05/26 03:14:26;;;;;;;13.53;5.60;;;15.30;93.40;;;;;;5056170;28;20174;-67
2022/05/26 03:16:52;;;;;;;16.03;5.73;;;15.20;92.90;;;;;;5055856;28;20165;-67
2022/05/26 03:19:18;;;;;;;18.67;6.40;;;15.20;95.20;;;;;;5055776;28;20197;-67
2022/05/26 03:21:44;;;;;;;19.13;6.00;;;15.20;96.20;;;;;;5055782;28;20591;-67
2022/05/26 03:24:11;;;;;;;14.60;5.87;;;15.20;96.00;;;;;;5055987;28;20177;-67
2022/05/26 03:26:36;;;;;;;15.17;5.97;;;15.10;95.80;;;;;;5055509;28;20172;-67
2022/05/26 03:29:03;;;;;;;24.03;6.63;;;15.20;95.20;;;;;;5055843;28;20177;-67
2022/05/26 03:31:30;;;;;;;11.03;5.63;;;15.10;95.10;;;;;;5055915;28;20165;-67
2022/05/26 03:42:12;;;;;;;21.33;6.53;;;15.10;95.90;;;;;;5055789;28;20698;-67
2022/05/26 03:44:38;;;;;;;18.17;6.40;;;15.20;98.40;;;;;;5055240;28;20183;-66
2022/05/26 03:47:05;;;;;;;14.97;5.73;;;15.10;96.30;;;;;;5055343;28;20204;-67
2022/05/26 03:49:31;;;;;;;21.60;6.57;;;15.10;96.00;;;;;;5055523;28;20231;-67
2022/05/26 03:51:57;;;;;;;16.07;6.13;;;15.20;96.00;;;;;;5055273;28;20177;-66
2022/05/26 03:54:23;;;;;;;15.37;5.87;;;15.20;94.80;;;;;;5054656;28;20199;-67
2022/05/26 03:56:49;;;;;;;18.33;6.03;;;15.30;93.60;;;;;;5054885;28;20177;-68
2022/05/26 03:59:15;;;;;;;18.40;6.03;;;15.30;93.10;;;;;;5055071;28;20537;-66
2022/05/26 04:01:40;;;;;;;16.70;6.17;;;15.30;91.50;;;;;;5054810;28;20213;-67
2022/05/26 04:04:07;;;;;;;15.10;5.87;;;15.30;91.80;;;;;;5054871;28;20647;-67
2022/05/26 04:06:32;;;;;;;18.37;5.37;;;15.40;90.50;;;;;;5055077;28;20199;-67
2022/05/26 04:08:59;;;;;;;16.47;5.77;;;15.40;89.40;;;;;;5054681;28;20173;-67
2022/05/26 04:11:25;;;;;;;15.60;6.00;;;15.20;90.30;;;;;;5054768;28;20173;-68
2022/05/26 04:13:53;;;;;;;16.87;6.07;;;15.10;92.60;;;;;;5054805;28;20604;-67
2022/05/26 04:16:23;;;;;;;21.87;6.77;;;15.10;95.00;;;;;;5054557;28;20173;-67
2022/05/26 04:18:50;;;;;;;17.93;6.40;;;15.10;96.40;;;;;;5054624;28;20180;-67
2022/05/26 04:21:16;;;;;;;20.83;6.90;;;15.10;96.30;;;;;;5054659;28;20161;-67
2022/05/26 04:23:42;;;;;;;17.63;5.87;;;15.10;94.90;;;;;;5054193;28;20542;-66
2022/05/26 04:26:09;;;;;;;15.07;5.50;;;15.20;95.10;;;;;;5054645;28;20173;-66
2022/05/26 04:28:35;;;;;;;19.90;6.23;;;15.30;94.00;;;;;;5054639;28;20217;-67
2022/05/26 04:31:01;;;;;;;18.07;6.03;;;15.40;90.70;;;;;;5054628;28;20181;-67
2022/05/26 04:33:27;;;;;;;21.57;5.90;;;15.30;84.60;;;;;;5054295;28;20260;-68
2022/05/26 04:35:54;;;;;;;20.20;6.37;;;15.30;91.40;;;;;;5054433;28;20260;-67
2022/05/26 04:38:20;;;;;;;21.00;6.00;;;15.40;88.20;;;;;;5054111;28;20196;-68
2022/05/26 04:40:59;;;;;;;17.87;6.07;;;15.50;85.30;;;;;;5054158;28;20209;-67
2022/05/26 04:43:25;;;;;;;16.53;6.63;;;15.50;75.90;;;;;;5054413;28;20169;-67
2022/05/26 04:45:51;;;;;;;23.47;6.67;;;15.50;72.10;;;;;;5053856;28;20637;-68
2022/05/26 04:48:17;;;;;;;17.20;5.77;;;15.50;76.40;;;;;;5052956;28;20184;-67
2022/05/26 04:50:43;;;;;;;19.60;6.67;;;15.40;73.00;;;;;;5053879;28;20189;-66
2022/05/26 04:53:08;;;;;;;18.30;6.20;;;15.40;81.30;;;;;;5053666;28;20687;-67
2022/05/26 04:55:34;;;;;;;20.23;6.03;;;15.50;67.50;;;;;;5053748;28;20790;-68
2022/05/26 04:57:59;;;;;;;19.53;7.27;;;15.50;68.10;;;;;;5053706;28;20176;-68
2022/05/26 05:00:25;;;;;;;18.40;6.20;;;15.40;74.30;;;;;;5053722;28;20362;-67
2022/05/26 05:02:53;;;;;;;17.67;6.63;;;15.40;71.00;;;;;;5053695;28;20225;-68
2022/05/26 05:05:19;;;;;;;18.97;6.60;;;15.40;71.90;;;;;;5053695;28;20166;-68
2022/05/26 05:07:45;;;;;;;17.00;6.60;;;15.40;69.00;;;;;;5052697;28;20168;-68
2022/05/26 05:10:11;;;;;;;24.27;6.77;;;15.40;75.20;;;;;;5053753;28;20173;-67
2022/05/26 05:12:36;;;;;;;21.77;7.40;;;15.40;75.40;;;;;;5053604;28;20180;-67
2022/05/26 05:15:06;;;;;;;21.47;7.47;;;15.40;72.00;;;;;;5053534;28;20216;-66
2022/05/26 05:17:32;;;;;;;19.70;7.53;;;15.40;62.10;;;;;;5053309;28;20177;-67
2022/05/26 05:19:57;;;;;;;20.53;7.20;;;15.40;70.10;;;;;;5053472;28;20205;-67
2022/05/26 05:22:45;;;;;;;19.77;6.73;;;15.40;65.10;;;;;;5052905;28;20239;-67
2022/05/26 05:25:27;;;;;;;20.77;7.90;;;15.50;63.80;;;;;;5053525;28;20248;-67
2022/05/26 05:28:18;;;;;;;24.17;8.23;;;15.50;61.50;;;;;;5053427;28;20161;-67
2022/05/26 05:30:56;;;;;;;22.00;7.30;;;15.50;61.40;;;;;;5050121;28;20193;-68
2022/05/26 05:33:30;;;;;;;22.63;7.97;;;15.60;55.90;;;;;;5053397;28;20177;-67
2022/05/26 05:36:06;;;;;;;16.73;8.47;;;15.70;50.10;;;;;;5053044;28;20644;-67
2022/05/26 05:38:34;;;;;;;24.47;8.63;;;15.70;49.40;;;;;;5053098;28;20644;-67
2022/05/26 05:41:01;;;;;;;18.80;9.17;;;15.70;49.00;;;;;;5053216;28;20311;-67
2022/05/26 05:43:27;;;;;;;20.70;8.43;;;15.80;48.40;;;;;;5053120;28;20173;-68
2022/05/26 05:45:52;;;;;;;23.70;9.33;;;15.90;42.70;;;;;;5052850;28;20531;-68
2022/05/26 05:48:18;;;;;;;19.37;8.97;;;16.00;31.60;;;;;;5052921;28;20166;-66
2022/05/26 05:50:43;;;;;;;16.23;8.30;;;16.00;36.80;;;;;;5052607;28;20197;-68
2022/05/26 05:53:09;;;;;;;22.07;8.37;;;15.70;41.80;;;;;;5053028;28;20172;-68
2022/05/26 05:55:35;;;;;;;22.00;8.80;;;15.50;51.60;;;;;;5052632;28;20263;-67
2022/05/26 05:58:00;;;;;;;21.73;8.70;;;15.60;50.70;;;;;;5052444;28;20208;-67
2022/05/26 06:00:26;;;;;;;18.27;8.87;;;15.60;50.60;;;;;;5052513;28;20672;-67
2022/05/26 06:02:52;;;;;;;18.77;8.70;;;15.80;47.90;;;;;;5051390;28;20257;-68
2022/05/26 06:05:17;;;;;;;20.27;9.20;;;15.80;46.20;;;;;;5052621;28;20177;-67
2022/05/26 06:07:43;;;;;;;18.50;8.83;;;16.00;29.10;;;;;;5052888;28;20663;-67
2022/05/26 06:10:11;;;;;;;15.13;8.30;;;16.20;29.40;;;;;;5052823;28;20169;-68
2022/05/26 06:12:37;;;;;;;16.97;9.47;;;16.40;17.60;;;;;;5053014;28;20181;-68
2022/05/26 06:15:04;;;;;;;16.33;8.80;;;16.30;18.00;;;;;;5052328;28;20177;-68
2022/05/26 06:17:30;;;;;;;19.93;9.53;;;16.40;16.80;;;;;;5052447;28;20177;-68
2022/05/26 06:19:55;;;;;;;19.70;8.77;;;16.50;9.70;;;;;;5056741;28;20204;-68
2022/05/26 06:22:22;;;;;;;19.20;9.70;;;16.50;3.10;;;;;;5056883;28;20522;-67
2022/05/26 06:24:48;;;;;;;24.07;9.67;;;16.50;3.00;;;;;;5056494;28;20207;-69
2022/05/26 06:30:04;;;;;;;16.93;8.43;;;16.30;10.30;;;;;;5056861;28;20180;-67
2022/05/26 06:38:00;;;;;;;19.40;9.73;;;16.00;20.90;;;;;;5056664;28;20701;-67
2022/05/26 06:40:28;;;;;;;19.57;9.57;;;15.90;22.50;;;;;;5056277;28;20239;-68
2022/05/26 06:42:55;;;;;;;14.73;9.50;;;16.00;24.20;;;;;;5056766;28;20610;-67
2022/05/26 06:45:22;;;;;;;18.97;9.70;;;16.10;14.50;;;;;;5056486;28;20177;-68
2022/05/26 06:47:48;;;;;;;15.37;8.90;;;16.40;12.80;;;;;;5055205;28;20177;-67
2022/05/26 06:50:15;;;;;;;16.93;9.10;;;16.80;1.00;;;;;;5056134;28;20653;-68
2022/05/26 06:52:40;;;;;;;22.77;9.50;;;17.20;1.00;;;;;;5056081;28;20180;-69
2022/05/26 06:55:07;;;;;;;15.83;8.63;;;17.50;1.00;;;;;;5056421;28;20178;-68
2022/05/26 06:57:33;;;;;;;15.77;8.03;;;17.60;1.00;;;;;;5055979;28;20176;-68
2022/05/26 07:00:00;;;;;;;17.23;8.40;;;17.10;1.00;;;;;;5055147;28;20213;-68
2022/05/26 07:02:25;;;;;;;12.83;7.20;;;17.30;1.00;;;;;;5055095;28;20315;-68
2022/05/26 07:04:51;;;;;;;13.17;7.13;;;17.50;1.00;;;;;;5055490;28;20668;-69
2022/05/26 07:07:17;;;;;;;10.88;7.00;;;17.90;1.00;;;;;;5055864;28;20174;-67
2022/05/26 07:09:43;;;;;;;12.73;6.28;;;18.10;1.00;;;;;;5056206;28;20183;-68
2022/05/26 07:12:10;;;;;;;19.38;6.50;;;18.50;1.00;;;;;;5055530;28;20197;-68
2022/05/26 07:14:36;;;;;;;14.52;6.15;;;18.70;1.00;;;;;;5055560;28;20172;-68
2022/05/26 07:17:02;;;;;;;15.50;6.35;;;18.70;1.00;;;;;;5055067;28;20189;-69
2022/05/26 07:19:31;;;;;;;10.68;6.47;;;20.20;1.00;;;;;;5055585;28;20197;-69
2022/05/26 07:21:57;;;;;;;13.85;5.65;;;22.10;1.00;;;;;;5055555;28;20532;-68
2022/05/26 07:24:24;;;;;;;16.70;5.53;;;22.10;1.00;;;;;;5055533;28;20173;-68
2022/05/26 07:26:50;;;;;;;11.30;6.10;;;22.40;99.90;;;;;;5055601;28;20201;-68
2022/05/26 07:29:16;;;;;;;12.20;5.07;;;21.90;99.90;;;;;;5054359;28;20166;-68
2022/05/26 07:31:42;;;;;;;13.43;5.50;;;22.10;99.90;;;;;;5054942;28;20176;-69
2022/05/26 07:34:08;;;;;;;11.98;4.88;;;22.10;99.90;;;;;;5055601;28;20263;-69
2022/05/26 07:42:16;;;;;;;12.48;4.88;;;21.70;1.00;;;;;;5055392;28;20175;-68
2022/05/26 07:44:45;;;;;;;14.88;5.70;;;21.30;1.00;;;;;;5054818;28;20166;-69
2022/05/26 07:47:11;;;;;;;11.35;5.63;;;20.70;1.00;;;;;;5054800;28;20185;-68
2022/05/26 07:49:43;;;;;;;13.05;5.97;;;20.20;99.90;;;;;;5054912;28;20230;-68
2022/05/26 07:52:10;;;;;;;11.93;5.88;;;19.80;99.90;;;;;;5054667;28;20203;-68
2022/05/26 07:54:37;;;;;;;13.90;6.47;;;19.30;1.00;;;;;;5055045;28;20173;-68
2022/05/26 07:57:03;;;;;;;12.32;6.32;;;19.40;1.00;;;;;;5054192;28;20307;-68
2022/05/26 07:59:29;;;;;;;9.88;5.93;;;19.30;1.00;;;;;;5053555;28;20193;-68
2022/05/26 08:01:55;;;;;;;10.15;6.10;;;19.40;1.00;;;;;;5054074;28;20233;-67
2022/05/26 08:04:21;;;;;;;12.55;6.88;;;19.20;1.00;;;;;;5054090;28;20193;-68
2022/05/26 08:06:48;;;;;;;12.90;6.15;;;19.20;1.00;;;;;;5054702;28;20246;-68
2022/05/26 08:09:19;;;;;;;17.05;6.93;;;19.10;1.00;;;;;;5054763;28;20161;-68
2022/05/26 08:11:45;;;;;;;12.35;6.05;;;19.60;1.00;;;;;;5054771;28;20173;-67
2022/05/26 08:14:11;;;;;;;14.57;5.95;;;19.90;1.00;;;;;;5054133;28;20161;-68
2022/05/26 08:16:38;;;;;;;10.55;5.50;;;19.80;1.00;;;;;;5054518;28;20625;-68
2022/05/26 08:19:04;;;;;;;12.07;5.50;;;19.30;1.00;;;;;;5054264;28;20291;-68
2022/05/26 08:21:30;;;;;;;11.70;5.22;;;19.30;1.00;;;;;;5054504;28;20181;-68
2022/05/26 08:23:56;;;;;;;10.65;5.43;;;19.40;1.00;;;;;;5054566;28;20246;-68
2022/05/26 08:26:22;;;;;;;10.13;5.35;;;19.60;1.00;;;;;;5053946;28;20209;-68
2022/05/26 08:28:49;;;;;;;10.25;5.00;;;19.50;1.00;;;;;;5054599;28;20682;-68
2022/05/26 08:31:15;;;;;;;10.00;4.70;;;19.40;1.00;;;;;;5054312;28;20173;-68
2022/05/26 08:33:42;;;;;;;12.35;4.95;;;19.20;1.00;;;;;;5054003;28;20707;-68
2022/05/26 08:36:10;;;;;;;10.55;4.60;;;19.70;1.00;;;;;;5054200;28;20230;-68
2022/05/26 08:38:37;;;;;;;11.82;4.65;;;19.60;1.00;;;;;;5053901;28;20176;-67
2022/05/26 08:41:04;;;;;;;12.20;4.38;;;19.60;1.00;;;;;;5053379;28;20209;-67
2022/05/26 08:43:41;;;;;;;9.88;4.10;;;19.90;99.90;;;;;;5052872;28;20173;-67
2022/05/26 08:46:12;;;;;;;12.35;4.60;;;19.80;99.90;;;;;;5053031;28;20172;-68
2022/05/26 08:48:58;;;;;;;13.48;4.55;;;19.70;1.00;;;;;;5054221;28;20173;-68
2022/05/26 08:51:48;;;;;;;14.68;4.82;;;20.10;99.90;;;;;;5053577;28;20173;-68
2022/05/26 08:54:44;;;;;;;12.70;4.45;;;20.30;99.90;;;;;;5052451;28;20184;-68
2022/05/26 08:57:14;;;;;;;8.85;4.13;;;20.10;99.90;;;;;;5053556;28;20169;-69
2022/05/26 08:59:45;;;;;;;11.32;4.10;;;20.60;99.90;;;;;;5052986;28;20766;-69
2022/05/26 09:02:21;;;;;;;11.70;3.72;;;20.10;7.30;;;;;;5053348;28;20229;-67
2022/05/26 09:04:47;;;;;;;7.20;3.13;;;19.90;99.90;;;;;;5052981;28;20275;-69
2022/05/26 09:12:59;;;;;;;10.80;3.40;;;20.40;1.00;;;;;;5053443;28;20654;-68
2022/05/26 09:15:32;;;;;;;10.18;3.28;;;20.40;1.00;;;;;;5053003;28;20177;-68
2022/05/26 09:17:59;;;;;;;9.90;3.33;;;20.30;99.90;;;;;;5053148;28;20174;-68
2022/05/26 09:20:33;;;;;;;6.55;2.90;;;20.70;1.00;;;;;;5053583;28;20213;-69
2022/05/26 09:23:24;;;;;;;7.97;2.90;;;21.30;6.70;;;;;;5053201;28;20165;-69
2022/05/26 09:26:20;;;;;;;9.80;3.30;;;21.70;1.00;;;;;;5050378;28;20260;-70
2022/05/26 09:28:51;;;;;;;8.38;3.40;;;21.90;1.00;;;;;;5052418;28;20239;-69
2022/05/26 09:31:33;;;;;;;10.63;3.45;;;21.70;1.00;;;;;;5053114;28;20193;-69
2022/05/26 09:34:16;;;;;;;7.13;3.20;;;21.60;1.00;;;;;;5053043;28;20212;-69
2022/05/26 09:36:42;;;;;;;7.03;3.10;;;21.70;99.90;;;;;;5053455;28;20195;-69
2022/05/26 09:39:08;;;;;;;5.38;2.90;;;22.30;1.00;;;;;;5052838;28;20652;-69
2022/05/26 09:41:41;;;;;;;6.07;2.83;;;23.40;1.00;;;;;;5052935;28;20185;-69
2022/05/26 09:44:24;;;;;;;8.35;3.00;;;22.90;1.00;;;;;;5052740;28;20169;-69
2022/05/26 09:46:52;;;;;;;6.75;3.47;;;23.20;1.00;;;;;;5052593;28;20207;-68
2022/05/26 09:49:23;;;;;;;10.07;3.80;;;23.00;1.00;;;;;;5053202;28;20196;-68
2022/05/26 09:51:49;;;;;;;8.13;4.53;;;22.30;99.90;;;;;;5052782;28;20530;-69
2022/05/26 09:54:34;;;;;;;11.48;4.70;;;21.50;1.00;;;;;;5052318;28;20169;-68
2022/05/26 09:57:13;;;;;;;6.90;3.92;;;21.40;1.00;;;;;;5052454;28;20343;-69
2022/05/26 09:59:40;;;;;;;6.43;4.00;;;21.30;99.90;;;;;;5052032;28;20824;-67
2022/05/26 10:02:26;;;;;;;8.48;3.42;;;21.60;99.90;;;;;;5052389;28;20217;-69
2022/05/26 10:05:12;;;;;;;4.85;3.15;;;22.60;94.10;;;;;;5051492;28;20177;-69
2022/05/26 10:08:05;;;;;;;6.68;2.80;;;22.70;99.90;;;;;;5051889;28;20184;-67
2022/05/26 10:10:42;;;;;;;5.70;2.78;;;22.40;99.90;;;;;;5052613;28;20200;-67
2022/05/26 10:13:30;;;;;;;6.35;2.92;;;22.00;99.90;;;;;;5052405;28;20161;-68
2022/05/26 10:16:10;;;;;;;6.55;3.35;;;21.30;1.00;;;;;;5052705;28;20169;-67
2022/05/26 10:18:54;;;;;;;5.95;4.00;;;21.50;99.90;;;;;;5052188;28;20184;-67
2022/05/26 10:21:28;;;;;;;8.93;3.70;;;21.30;99.90;;;;;;5052357;28;20288;-68
2022/05/26 10:24:31;;;;;;;7.55;3.20;;;21.90;1.00;;;;;;5052880;28;20177;-68
2022/05/26 10:27:18;;;;;;;6.13;3.17;;;22.40;99.90;;;;;;5052275;28;20173;-68
2022/05/26 10:30:01;;;;;;;4.43;2.70;;;22.50;1.00;;;;;;5052761;28;20266;-67
2022/05/26 10:32:47;;;;;;;7.63;3.30;;;22.80;1.00;;;;;;5052524;28;20184;-69
2022/05/26 10:35:48;;;;;;;6.90;2.83;;;23.20;99.90;;;;;;5030311;28;20224;-69
2022/05/26 10:38:25;;;;;;;6.22;2.55;;;24.30;1.00;;;;;;5030804;28;20181;-69
2022/05/26 10:41:31;;;;;;;6.68;3.10;;;24.80;99.90;;;;;;5029108;28;20233;-68
2022/05/26 10:44:19;;;;;;;6.63;2.70;;;24.90;99.90;;;;;;5030541;28;20221;-67
2022/05/26 10:46:54;;;;;;;7.43;3.22;;;23.90;1.00;;;;;;5030077;28;20305;-68
2022/05/26 10:49:35;;;;;;;8.05;3.25;;;23.80;1.00;;;;;;5029602;28;20174;-68
2022/05/26 10:52:07;;;;;;;7.53;2.92;;;23.60;1.00;;;;;;5030478;28;20170;-68
2022/05/26 10:55:04;;;;;;;7.30;2.50;;;24.00;1.00;;;;;;5030151;28;20174;-68
2022/05/26 10:57:35;;;;;;;3.63;2.20;;;24.70;99.90;;;;;;5029793;28;20177;-67
2022/05/26 11:00:08;;;;;;;3.63;2.53;;;24.30;99.90;;;;;;5013006;28;20220;-68
2022/05/26 11:02:56;;;;;;;7.40;2.72;;;24.40;99.90;;;;;;5020834;28;20219;-67
2022/05/26 11:05:35;;;;;;;4.78;2.80;;;23.80;1.00;;;;;;5011529;28;20185;-66
2022/05/26 11:08:18;;;;;;;9.57;2.78;;;22.80;1.00;;;;;;5013492;28;20209;-68
2022/05/26 11:10:50;;;;;;;5.80;2.50;;;22.40;99.90;;;;;;5013643;28;20181;-69
2022/05/26 11:13:38;;;;;;;6.10;2.13;;;22.80;99.90;;;;;;5016068;28;20174;-67
2022/05/26 11:19:18;;;;;;;2.42;1.90;;;23.00;1.60;;;;;;5015890;28;20197;-67
2022/05/26 11:21:44;;;;;;;3.60;1.88;;;23.90;1.00;;;;;;5015111;28;20257;-66
2022/05/26 11:24:10;;;;;;;3.05;2.30;;;23.90;1.00;;;;;;5015510;28;20179;-67
2022/05/26 11:26:47;;;;;;;3.83;2.20;;;23.90;1.00;;;;;;5015763;28;20183;-68
2022/05/26 11:29:22;;;;;;;7.40;2.22;;;23.30;1.00;;;;;;5016315;28;20174;-68
2022/05/26 11:37:36;;;;;;;3.55;2.05;;;23.90;99.90;;;;;;5015043;28;20324;-67
2022/05/26 11:40:06;;;;;;;4.00;2.10;;;23.40;1.00;;;;;;5014639;28;20289;-67
2022/05/26 11:42:37;;;;;;;5.00;1.80;;;23.60;99.90;;;;;;5015579;28;20166;-68
2022/05/26 11:45:17;;;;;;;3.58;1.90;;;23.90;99.90;;;;;;5015179;28;20178;-68
2022/05/26 11:48:00;;;;;;;5.45;2.17;;;23.90;99.90;;;;;;5015081;28;20727;-68
2022/05/26 11:50:34;;;;;;;3.70;2.00;;;23.90;99.90;;;;;;5014461;28;20189;-67
2022/05/26 11:53:04;;;;;;;2.70;2.00;;;23.90;99.90;;;;;;5014443;28;20170;-67
2022/05/26 11:56:04;;;;;;;4.32;1.90;;;24.30;99.90;;;;;;5014987;28;20697;-69
2022/05/26 11:58:41;;;;;;;3.55;1.70;;;24.40;99.90;;;;;;5015234;28;20540;-68
2022/05/26 12:01:09;;;;;;;2.88;1.65;;;24.20;99.90;;;;;;5014781;28;20206;-67
2022/05/26 12:03:47;;;;;;;4.38;1.92;;;24.00;99.90;;;;;;5049411;28;20256;-67
2022/05/26 12:06:16;;;;;;;4.55;2.47;;;23.80;99.90;;;;;;5052258;28;20276;-66
2022/05/26 12:08:53;;;;;;;6.72;1.98;;;23.70;99.90;;;;;;5054057;28;20263;-67
2022/05/26 12:11:39;;;;;;;4.10;1.90;;;24.00;99.90;;;;;;5054314;28;20165;-67
2022/05/26 12:14:07;;;;;;;4.10;1.90;;;24.20;99.90;;;;;;5054696;28;20173;-68
2022/05/26 12:16:34;;;;;;;4.32;1.80;;;24.00;99.90;;;;;;5054387;28;20200;-68
2022/05/26 12:19:08;;;;;;;5.50;2.10;;;23.70;99.90;;;;;;5054260;28;20664;-67
2022/05/26 12:21:47;;;;;;;3.80;2.22;;;23.90;1.00;;;;;;5053883;28;20238;-66
2022/05/26 12:24:31;;;;;;;5.78;2.08;;;24.10;99.90;;;;;;5054232;28;20174;-66
2022/05/26 12:26:58;;;;;;;4.63;1.73;;;23.40;1.00;;;;;;5054246;28;20641;-68
2022/05/26 12:29:48;;;;;;;3.65;2.03;;;23.20;1.00;;;;;;5053728;28;20161;-68
2022/05/26 12:32:25;;;;;;;5.93;1.95;;;23.40;1.00;;;;;;5054024;28;20215;-67
2022/05/26 12:35:20;;;;;;;5.55;1.92;;;23.50;1.00;;;;;;5054035;28;20291;-67
2022/05/26 12:38:01;;;;;;;2.58;1.83;;;23.50;1.00;;;;;;5053938;28;20181;-67
2022/05/26 12:40:33;;;;;;;4.15;1.77;;;23.00;1.00;;;;;;5053841;28;20293;-67
2022/05/26 12:43:22;;;;;;;3.75;1.65;;;23.30;1.00;;;;;;5053953;28;20216;-67
2022/05/26 12:45:52;;;;;;;4.60;2.17;;;22.90;1.00;;;;;;5053762;28;20192;-66
2022/05/26 12:48:42;;;;;;;5.95;2.13;;;22.80;1.00;;;;;;5053507;28;20675;-68
2022/05/26 12:51:11;;;;;;;4.03;1.60;;;22.70;99.90;;;;;;5053208;28;20506;-68
2022/05/26 12:53:45;;;;;;;5.10;1.83;;;23.00;1.00;;;;;;5053468;28;20659;-68
2022/05/26 12:56:14;;;;;;;7.10;2.85;;;22.80;1.00;;;;;;5053492;28;20515;-68
2022/05/26 12:58:48;;;;;;;5.38;2.10;;;22.80;1.00;;;;;;5053332;28;20174;-67
2022/05/26 13:01:15;;;;;;;3.58;1.70;;;22.80;1.00;;;;;;5052911;28;20212;-67
2022/05/26 13:03:54;;;;;;;5.30;1.88;;;22.90;1.00;;;;;;5052551;28;20221;-70
2022/05/26 13:06:22;;;;;;;4.97;1.80;;;22.50;1.00;;;;;;5053338;28;20181;-67
2022/05/26 13:09:15;;;;;;;4.88;2.00;;;22.50;99.90;;;;;;5052803;28;20532;-68
2022/05/26 13:11:49;;;;;;;4.85;1.67;;;22.70;17.50;;;;;;5053296;28;20180;-68
2022/05/26 13:14:42;;;;;;;3.35;1.88;;;23.00;1.00;;;;;;5053477;28;20652;-68
2022/05/26 13:17:11;;;;;;;4.90;1.90;;;23.10;2.10;;;;;;5053279;28;20166;-68
2022/05/26 13:19:53;;;;;;;5.30;2.03;;;22.60;99.90;;;;;;5052807;28;20220;-67
2022/05/26 13:22:25;;;;;;;2.80;2.03;;;22.80;99.90;;;;;;5052817;28;20166;-68
2022/05/26 13:25:11;;;;;;;3.67;1.80;;;23.30;1.00;;;;;;5053409;28;20173;-68
2022/05/26 13:27:47;;;;;;;2.83;1.75;;;23.00;1.00;;;;;;5052859;28;20209;-68
2022/05/26 13:33:11;;;;;;;2.63;1.63;;;22.70;99.90;;;;;;5010891;28;20250;-68
2022/05/26 13:35:42;;;;;;;3.83;1.67;;;22.90;75.60;;;;;;5011169;28;20629;-69
2022/05/26 13:38:21;;;;;;;4.75;1.92;;;23.00;99.90;;;;;;5011194;28;20182;-67
2022/05/26 13:40:47;;;;;;;4.78;1.80;;;23.00;99.90;;;;;;5011061;28;20302;-68
2022/05/26 13:43:16;;;;;;;4.55;1.98;;;22.80;99.90;;;;;;5010867;28;20190;-69
2022/05/26 13:45:43;;;;;;;6.70;2.13;;;22.50;99.90;;;;;;5010648;28;20178;-68
2022/05/26 13:48:30;;;;;;;4.32;1.95;;;22.60;1.00;;;;;;5010619;28;20167;-68
2022/05/26 13:51:37;;;;;;;3.85;2.00;;;22.50;1.00;;;;;;5011226;28;20273;-69
2022/05/26 13:54:30;;;;;;;4.53;1.77;;;22.50;1.00;;;;;;4894897;29;20690;-68